createdAt,value
2016-11-02T00:01:00.468Z,63.98
2016-11-02T00:02:11.167Z,63.89
2016-11-02T00:03:22.239Z,63.46
2016-11-02T00:04:33.543Z,63.76
2016-11-02T00:05:44.200Z,63.66
2016-11-02T00:06:55.448Z,64.04
2016-11-02T00:08:06.333Z,63.46
2016-11-02T00:09:17.064Z,64.62
2016-11-02T00:10:28.564Z,64.14
2016-11-02T00:11:40.028Z,64.34
2016-11-02T00:12:52.093Z,64.4
2016-11-02T00:14:03.567Z,64.34
2016-11-02T00:15:14.678Z,64.11
2016-11-02T00:16:25.784Z,64.04
2016-11-02T00:17:36.556Z,64.72
2016-11-02T00:18:47.762Z,64.79
2016-11-02T00:19:58.419Z,64.5
2016-11-02T00:21:09.469Z,64.79
2016-11-02T00:22:20.543Z,64.21
2016-11-02T00:23:31.287Z,64.01
2016-11-02T00:24:42.399Z,63.82
2016-11-02T00:25:53.468Z,63.53
2016-11-02T00:27:04.420Z,62.56
2016-11-02T00:28:15.127Z,62.37
2016-11-02T00:29:26.293Z,61.89
2016-11-02T00:30:37.130Z,61.4
2016-11-02T00:31:48.301Z,61.72
2016-11-02T00:32:59.684Z,61.21
2016-11-02T00:34:10.816Z,61.3
2016-11-02T00:35:22.382Z,61.3
2016-11-02T00:36:33.483Z,61.6
2016-11-02T00:37:44.614Z,61.21
2016-11-02T00:38:55.278Z,61.21
2016-11-02T00:40:05.985Z,61.21
2016-11-02T00:41:17.044Z,60.44
2016-11-02T00:42:28.235Z,60.72
2016-11-02T00:43:39.386Z,60.34
2016-11-02T00:44:51.115Z,60.72
2016-11-02T00:46:02.238Z,60.24
2016-11-02T00:47:13.753Z,60.05
2016-11-02T00:48:25.173Z,60.53
2016-11-02T00:49:36.048Z,60.72
2016-11-02T00:50:47.548Z,60.34
2016-11-02T00:51:58.715Z,60.63
2016-11-02T00:53:09.868Z,60.34
2016-11-02T00:54:20.981Z,60.14
2016-11-02T00:55:32.408Z,60.44
2016-11-02T00:56:43.530Z,59.47
2016-11-02T00:57:54.613Z,59.47
2016-11-02T00:59:05.282Z,59.38
2016-11-02T01:00:16.202Z,59.18
2016-11-02T01:01:27.119Z,59.56
2016-11-02T01:02:38.187Z,59.66
2016-11-02T01:03:49.263Z,59.76
2016-11-02T01:05:00.031Z,59.92
2016-11-02T01:06:11.243Z,60.11
2016-11-02T01:07:22.741Z,59.73
2016-11-02T01:08:33.411Z,60.6
2016-11-02T01:09:44.491Z,60.02
2016-11-02T01:10:55.252Z,60.11
2016-11-02T01:12:06.534Z,59.83
2016-11-02T01:13:17.588Z,59.53
2016-11-02T01:14:28.708Z,59.92
2016-11-02T01:15:39.405Z,60.21
2016-11-02T01:16:50.111Z,60.11
2016-11-02T01:18:01.586Z,60.11
2016-11-02T01:19:12.291Z,60.11
2016-11-02T01:20:23.048Z,60.31
2016-11-02T01:21:34.092Z,60.11
2016-11-02T01:22:45.236Z,60.11
2016-11-02T01:23:56.508Z,60.41
2016-11-02T01:25:07.646Z,60.6
2016-11-02T01:26:18.897Z,60.02
2016-11-02T01:27:30.386Z,60.02
2016-11-02T01:28:41.463Z,60.69
2016-11-02T01:29:55.632Z,60.21
2016-11-02T01:31:06.843Z,60.11
2016-11-02T01:32:17.690Z,60.02
2016-11-02T01:33:28.439Z,60.6
2016-11-02T01:34:40.353Z,60.6
2016-11-02T01:35:52.009Z,60.69
2016-11-02T01:37:02.729Z,60.31
2016-11-02T01:38:13.606Z,60.69
2016-11-02T01:39:25.099Z,60.99
2016-11-02T01:40:35.849Z,61.37
2016-11-02T01:41:46.584Z,60.79
2016-11-02T01:42:57.373Z,61.63
2016-11-02T01:44:08.117Z,61.54
2016-11-02T01:45:18.883Z,61.54
2016-11-02T01:46:30.311Z,61.73
2016-11-02T01:47:41.495Z,62.4
2016-11-02T01:48:52.262Z,62.12
2016-11-02T01:50:03.587Z,62.79
2016-11-02T01:51:14.262Z,62.7
2016-11-02T01:52:25.569Z,62.7
2016-11-02T01:53:37.273Z,63.18
2016-11-02T01:54:49.551Z,62.6
2016-11-02T01:56:00.525Z,63.18
2016-11-02T01:57:11.343Z,62.7
2016-11-02T01:58:23.686Z,62.7
2016-11-02T01:59:34.550Z,62.98
2016-11-02T02:00:45.618Z,62.79
2016-11-02T02:01:56.971Z,62.89
2016-11-02T02:03:07.781Z,62.79
2016-11-02T02:04:19.088Z,63.28
2016-11-02T02:05:30.049Z,64.05
2016-11-02T02:06:41.968Z,64.05
2016-11-02T02:07:53.103Z,64.05
2016-11-02T02:09:04.233Z,64.05
2016-11-02T02:10:15.681Z,64.05
2016-11-02T02:11:26.797Z,64.43
2016-11-02T02:12:38.003Z,64.34
2016-11-02T02:13:48.781Z,64.24
2016-11-02T02:14:59.861Z,64.34
2016-11-02T02:16:10.985Z,63.95
2016-11-02T02:17:22.162Z,64.34
2016-11-02T02:18:32.902Z,64.53
2016-11-02T02:19:43.687Z,64.53
2016-11-02T02:20:55.269Z,64.92
2016-11-02T02:22:06.530Z,64.82
2016-11-02T02:23:17.348Z,64.92
2016-11-02T02:24:28.500Z,64.72
2016-11-02T02:25:40.283Z,65.3
2016-11-02T02:26:51.433Z,65.56
2016-11-02T02:28:03.092Z,65.17
2016-11-02T02:29:14.093Z,65.88
2016-11-02T02:30:25.976Z,65.66
2016-11-02T02:31:36.728Z,65.69
2016-11-02T02:32:47.617Z,65.56
2016-11-02T02:33:58.961Z,65.59
2016-11-02T02:35:10.715Z,65.27
2016-11-02T02:36:21.483Z,65.47
2016-11-02T02:37:32.878Z,66.14
2016-11-02T02:38:44.182Z,65.85
2016-11-02T02:39:55.838Z,65.95
2016-11-02T02:41:06.613Z,66.53
2016-11-02T02:42:18.577Z,65.85
2016-11-02T02:43:30.892Z,66.05
2016-11-02T02:44:42.002Z,66.33
2016-11-02T02:45:52.990Z,66.82
2016-11-02T02:47:03.972Z,66.24
2016-11-02T02:48:15.019Z,66.05
2016-11-02T02:49:26.659Z,65.95
2016-11-02T02:50:37.825Z,65.85
2016-11-02T02:51:50.318Z,66.24
2016-11-02T02:53:01.292Z,66.24
2016-11-02T02:54:12.479Z,66.33
2016-11-02T02:55:23.457Z,66.43
2016-11-02T02:56:35.043Z,66.43
2016-11-02T02:57:45.998Z,66.33
2016-11-02T02:58:57.392Z,66.82
2016-11-02T03:00:08.147Z,66.82
2016-11-02T03:01:18.883Z,66.91
2016-11-02T03:02:29.855Z,66.82
2016-11-02T03:03:42.165Z,66.82
2016-11-02T03:04:53.648Z,66.88
2016-11-02T03:06:04.777Z,67.2
2016-11-02T03:07:15.878Z,67.2
2016-11-02T03:08:27.382Z,67.2
2016-11-02T03:09:38.469Z,67.55
2016-11-02T03:10:49.689Z,67.69
2016-11-02T03:12:01.426Z,67.46
2016-11-02T03:13:12.591Z,67.75
2016-11-02T03:14:23.719Z,67.85
2016-11-02T03:15:34.872Z,67.85
2016-11-02T03:16:45.973Z,67.75
2016-11-02T03:17:56.711Z,67.46
2016-11-02T03:19:07.877Z,67.88
2016-11-02T03:20:19.021Z,68.43
2016-11-02T03:21:29.797Z,68.26
2016-11-02T03:22:40.952Z,68.13
2016-11-02T03:23:51.688Z,68.71
2016-11-02T03:25:02.863Z,68.71
2016-11-02T03:26:14.046Z,69.29
2016-11-02T03:27:26.457Z,69.2
2016-11-02T03:28:37.165Z,68.81
2016-11-02T03:29:48.254Z,69.2
2016-11-02T03:31:00.110Z,68.91
2016-11-02T03:32:11.261Z,69
2016-11-02T03:33:22.345Z,68.71
2016-11-02T03:34:33.273Z,69.2
2016-11-02T03:35:43.956Z,69.2
2016-11-02T03:36:54.885Z,69.87
2016-11-02T03:38:06.420Z,70.06
2016-11-02T03:39:17.723Z,69.58
2016-11-02T03:40:29.161Z,69.68
2016-11-02T03:41:40.732Z,69.97
2016-11-02T03:42:51.848Z,69.97
2016-11-02T03:44:02.978Z,69.64
2016-11-02T03:45:14.126Z,69.74
2016-11-02T03:46:25.736Z,69.64
2016-11-02T03:47:36.426Z,70.45
2016-11-02T03:48:48.331Z,70.26
2016-11-02T03:49:59.660Z,70.74
2016-11-02T03:51:10.746Z,70.45
2016-11-02T03:52:22.265Z,70.54
2016-11-02T03:53:33.485Z,70.32
2016-11-02T03:54:44.289Z,70.7
2016-11-02T03:55:55.005Z,70.8
2016-11-02T03:57:06.491Z,70.22
2016-11-02T03:58:17.622Z,71.03
2016-11-02T03:59:29.213Z,70.84
2016-11-02T04:00:39.913Z,70.9
2016-11-02T04:01:51.482Z,70.9
2016-11-02T04:03:02.219Z,71.19
2016-11-02T04:04:13.026Z,71.28
2016-11-02T04:05:24.327Z,71.09
2016-11-02T04:06:35.228Z,71.09
2016-11-02T04:07:46.260Z,71.28
2016-11-02T04:08:56.972Z,71.09
2016-11-02T04:10:08.515Z,70.9
2016-11-02T04:11:19.303Z,71.09
2016-11-02T04:12:29.968Z,71.48
2016-11-02T04:13:41.099Z,71.96
2016-11-02T04:14:52.226Z,71.96
2016-11-02T04:16:02.971Z,72.15
2016-11-02T04:17:13.720Z,71.96
2016-11-02T04:18:24.447Z,71.96
2016-11-02T04:19:35.178Z,72.06
2016-11-02T04:20:46.693Z,71.96
2016-11-02T04:21:57.948Z,71.86
2016-11-02T04:23:09.399Z,72.34
2016-11-02T04:24:20.150Z,72.25
2016-11-02T04:25:30.910Z,72.25
2016-11-02T04:26:42.356Z,71.86
2016-11-02T04:27:53.576Z,72.25
2016-11-02T04:29:04.655Z,71.96
2016-11-02T04:30:15.444Z,72.25
2016-11-02T04:31:29.561Z,72.15
2016-11-02T04:32:40.749Z,72.34
2016-11-02T04:33:51.526Z,71.92
2016-11-02T04:35:02.285Z,72.06
2016-11-02T04:36:13.373Z,72.54
2016-11-02T04:37:24.140Z,72.02
2016-11-02T04:38:34.829Z,72.44
2016-11-02T04:39:45.894Z,71.92
2016-11-02T04:40:56.983Z,72.44
2016-11-02T04:42:08.081Z,72.6
2016-11-02T04:43:19.141Z,72.5
2016-11-02T04:44:29.900Z,72.6
2016-11-02T04:45:40.598Z,72.21
2016-11-02T04:46:51.743Z,72.6
2016-11-02T04:48:02.420Z,72.6
2016-11-02T04:49:13.120Z,72.6
2016-11-02T04:50:24.227Z,72.79
2016-11-02T04:51:35.023Z,72.6
2016-11-02T04:52:46.574Z,72.5
2016-11-02T04:53:57.699Z,72.99
2016-11-02T04:55:08.382Z,72.79
2016-11-02T04:56:19.126Z,73.18
2016-11-02T04:57:30.833Z,73.08
2016-11-02T04:58:42.316Z,73.18
2016-11-02T04:59:53.027Z,73.66
2016-11-02T05:01:04.173Z,73.75
2016-11-02T05:02:15.353Z,73.85
2016-11-02T05:03:26.489Z,73.08
2016-11-02T05:04:37.578Z,73.18
2016-11-02T05:05:49.096Z,73.08
2016-11-02T05:07:00.227Z,73.08
2016-11-02T05:08:11.720Z,73.08
2016-11-02T05:09:23.256Z,73.57
2016-11-02T05:10:34.369Z,72.99
2016-11-02T05:11:45.491Z,73.66
2016-11-02T05:12:56.201Z,73.37
2016-11-02T05:14:06.968Z,73.47
2016-11-02T05:15:18.130Z,73.37
2016-11-02T05:16:30.389Z,73.57
2016-11-02T05:17:41.483Z,73.37
2016-11-02T05:18:52.213Z,73.47
2016-11-02T05:20:03.345Z,73.08
2016-11-02T05:21:14.545Z,73.53
2016-11-02T05:22:26.046Z,73.82
2016-11-02T05:23:37.114Z,73.62
2016-11-02T05:24:47.830Z,74.2
2016-11-02T05:25:58.944Z,74.1
2016-11-02T05:27:10.051Z,74.1
2016-11-02T05:28:21.320Z,73.53
2016-11-02T05:29:32.426Z,74.1
2016-11-02T05:30:43.909Z,73.62
2016-11-02T05:31:54.691Z,73.43
2016-11-02T05:33:05.373Z,73.62
2016-11-02T05:34:16.526Z,73.72
2016-11-02T05:35:27.686Z,73.62
2016-11-02T05:36:38.853Z,74.4
2016-11-02T05:37:49.972Z,73.82
2016-11-02T05:39:01.567Z,73.82
2016-11-02T05:40:12.307Z,74.3
2016-11-02T05:41:23.771Z,74.97
2016-11-02T05:42:34.553Z,74.78
2016-11-02T05:43:45.330Z,74.97
2016-11-02T05:44:56.152Z,75.26
2016-11-02T05:46:06.814Z,75.36
2016-11-02T05:47:17.566Z,75.71
2016-11-02T05:48:29.046Z,75.61
2016-11-02T05:49:40.129Z,76.09
2016-11-02T05:50:51.213Z,75.8
2016-11-02T05:52:02.747Z,75.99
2016-11-02T05:53:14.237Z,75.9
2016-11-02T05:54:26.138Z,76.57
2016-11-02T05:55:36.857Z,76.28
2016-11-02T05:56:47.587Z,76.48
2016-11-02T05:57:58.337Z,76.57
2016-11-02T05:59:09.809Z,77.06
2016-11-02T06:00:20.904Z,76.28
2016-11-02T06:01:32.473Z,76.38
2016-11-02T06:02:43.247Z,76.48
2016-11-02T06:03:53.895Z,75.99
2016-11-02T06:05:05.432Z,75.13
2016-11-02T06:06:17.315Z,75.03
2016-11-02T06:07:28.021Z,75.23
2016-11-02T06:08:39.251Z,75.13
2016-11-02T06:09:49.951Z,75.13
2016-11-02T06:11:01.031Z,74.93
2016-11-02T06:12:11.779Z,75.03
2016-11-02T06:13:22.545Z,75.8
2016-11-02T06:14:33.731Z,75.9
2016-11-02T06:15:44.412Z,75.32
2016-11-02T06:16:55.539Z,75.03
2016-11-02T06:18:06.276Z,74.84
2016-11-02T06:19:22.043Z,74.74
2016-11-02T06:20:33.633Z,74.65
2016-11-02T06:21:44.811Z,74.55
2016-11-02T06:22:56.415Z,73.39
2016-11-02T06:24:08.105Z,73.2
2016-11-02T06:25:19.213Z,73.39
2016-11-02T06:26:30.810Z,72.81
2016-11-02T06:27:41.513Z,72.91
2016-11-02T06:28:53.045Z,72.53
2016-11-02T06:30:03.756Z,72.14
2016-11-02T06:31:14.805Z,72.14
2016-11-02T06:32:26.420Z,72.24
2016-11-02T06:33:37.525Z,72.27
2016-11-02T06:34:48.623Z,71.28
2016-11-02T06:35:59.271Z,71.7
2016-11-02T06:37:10.094Z,71.31
2016-11-02T06:38:20.873Z,71.89
2016-11-02T06:39:31.593Z,71.89
2016-11-02T06:40:43.885Z,72.08
2016-11-02T06:41:54.586Z,71.89
2016-11-02T06:43:05.663Z,71.89
2016-11-02T06:44:17.551Z,71.79
2016-11-02T06:45:28.305Z,71.98
2016-11-02T06:46:39.091Z,70.54
2016-11-02T06:47:50.186Z,70.92
2016-11-02T06:49:01.311Z,71.02
2016-11-02T06:50:12.887Z,71.12
2016-11-02T06:51:23.601Z,70.92
2016-11-02T06:52:34.684Z,70.35
2016-11-02T06:53:45.847Z,70.44
2016-11-02T06:54:56.947Z,70.83
2016-11-02T06:56:07.798Z,70.35
2016-11-02T06:57:18.875Z,70.92
2016-11-02T06:58:29.963Z,71.12
2016-11-02T06:59:41.080Z,71.5
2016-11-02T07:00:52.592Z,71.31
2016-11-02T07:02:03.675Z,71.22
2016-11-02T07:03:14.370Z,70.92
2016-11-02T07:04:25.112Z,71.02
2016-11-02T07:05:35.896Z,71.31
2016-11-02T07:06:47.364Z,71.31
2016-11-02T07:07:58.823Z,71.5
2016-11-02T07:09:09.900Z,72.08
2016-11-02T07:10:20.968Z,71.7
2016-11-02T07:11:32.094Z,71.31
2016-11-02T07:12:43.172Z,70.92
2016-11-02T07:13:54.423Z,71.31
2016-11-02T07:15:05.580Z,71.02
2016-11-02T07:16:17.513Z,71.5
2016-11-02T07:17:28.656Z,71.89
2016-11-02T07:18:39.360Z,71.89
2016-11-02T07:19:50.165Z,71.89
2016-11-02T07:21:00.854Z,71.02
2016-11-02T07:22:11.962Z,70.64
2016-11-02T07:23:22.690Z,70.15
2016-11-02T07:24:33.888Z,70.15
2016-11-02T07:25:45.041Z,70.15
2016-11-02T07:26:56.519Z,69.48
2016-11-02T07:28:07.669Z,69.48
2016-11-02T07:29:18.777Z,70.44
2016-11-02T07:30:29.898Z,69.57
2016-11-02T07:31:40.611Z,69.67
2016-11-02T07:32:51.322Z,69.48
2016-11-02T07:34:02.419Z,69.67
2016-11-02T07:35:13.196Z,69.57
2016-11-02T07:36:24.327Z,70.44
2016-11-02T07:37:35.155Z,70.54
2016-11-02T07:38:47.379Z,70.25
2016-11-02T07:39:58.103Z,70.15
2016-11-02T07:41:08.810Z,70.25
2016-11-02T07:42:19.890Z,70.44
2016-11-02T07:43:31.132Z,70.44
2016-11-02T07:44:41.861Z,69.96
2016-11-02T07:45:52.575Z,70.15
2016-11-02T07:47:04.113Z,70.83
2016-11-02T07:48:15.224Z,71.22
2016-11-02T07:49:26.015Z,71.31
2016-11-02T07:50:36.758Z,71.02
2016-11-02T07:51:47.432Z,71.7
2016-11-02T07:52:58.496Z,71.31
2016-11-02T07:54:09.208Z,71.41
2016-11-02T07:55:19.897Z,71.22
2016-11-02T07:56:31.530Z,70.73
2016-11-02T07:57:42.244Z,70.15
2016-11-02T07:58:52.949Z,70.15
2016-11-02T08:00:03.721Z,70.06
2016-11-02T08:01:15.288Z,69.87
2016-11-02T08:02:26.046Z,69.57
2016-11-02T08:03:37.225Z,69.67
2016-11-02T08:04:47.975Z,70.44
2016-11-02T08:05:59.484Z,69.67
2016-11-02T08:07:11.065Z,69.57
2016-11-02T08:08:22.204Z,70.15
2016-11-02T08:09:33.303Z,70.25
2016-11-02T08:10:44.023Z,71.02
2016-11-02T08:11:55.407Z,71.7
2016-11-02T08:13:06.179Z,71.7
2016-11-02T08:14:17.248Z,72.08
2016-11-02T08:15:28.348Z,72.37
2016-11-02T08:16:39.443Z,72.08
2016-11-02T08:17:50.547Z,72.43
2016-11-02T08:19:01.639Z,72.43
2016-11-02T08:20:12.366Z,72.08
2016-11-02T08:21:23.508Z,72.24
2016-11-02T08:22:34.327Z,71.95
2016-11-02T08:23:45.034Z,72.56
2016-11-02T08:24:56.274Z,72.47
2016-11-02T08:26:06.976Z,72.72
2016-11-02T08:27:18.086Z,73.2
2016-11-02T08:28:29.214Z,73.49
2016-11-02T08:29:40.735Z,73.97
2016-11-02T08:30:51.410Z,73.88
2016-11-02T08:32:02.535Z,73.88
2016-11-02T08:33:13.657Z,73.88
2016-11-02T08:34:24.360Z,73.49
2016-11-02T08:35:35.499Z,73.1
2016-11-02T08:36:47.074Z,72.56
2016-11-02T08:37:58.236Z,72.75
2016-11-02T08:39:08.936Z,72.37
2016-11-02T08:40:19.608Z,72.27
2016-11-02T08:41:30.704Z,72.18
2016-11-02T08:42:41.437Z,72.37
2016-11-02T08:43:52.553Z,71.89
2016-11-02T08:45:04.009Z,72.12
2016-11-02T08:46:14.797Z,71.44
2016-11-02T08:47:25.917Z,71.34
2016-11-02T08:48:37.487Z,70.86
2016-11-02T08:49:48.231Z,70.28
2016-11-02T08:50:59.894Z,69.9
2016-11-02T08:52:10.600Z,69.93
2016-11-02T08:53:22.126Z,69.64
2016-11-02T08:54:33.613Z,69.35
2016-11-02T08:55:44.742Z,68.77
2016-11-02T08:56:55.512Z,68.87
2016-11-02T08:58:06.653Z,68.19
2016-11-02T08:59:17.328Z,68.1
2016-11-02T09:00:28.497Z,67.94
2016-11-02T09:01:39.173Z,67.85
2016-11-02T09:02:50.224Z,67.55
2016-11-02T09:04:00.944Z,67.55
2016-11-02T09:05:12.010Z,67.55
2016-11-02T09:06:23.269Z,67.55
2016-11-02T09:07:34.060Z,67.65
2016-11-02T09:08:44.795Z,67.3
2016-11-02T09:09:56.674Z,67.3
2016-11-02T09:11:08.175Z,66.72
2016-11-02T09:12:20.441Z,66.33
2016-11-02T09:13:31.509Z,66.43
2016-11-02T09:14:42.220Z,65.98
2016-11-02T09:15:52.891Z,66.56
2016-11-02T09:17:03.954Z,66.27
2016-11-02T09:18:15.263Z,65.78
2016-11-02T09:19:26.296Z,65.69
2016-11-02T09:20:37.364Z,65.3
2016-11-02T09:21:48.081Z,65.88
2016-11-02T09:22:59.135Z,66.17
2016-11-02T09:24:09.986Z,66.85
2016-11-02T09:25:21.454Z,67.11
2016-11-02T09:26:33.265Z,66.82
2016-11-02T09:27:44.353Z,67.49
2016-11-02T09:28:55.851Z,66.82
2016-11-02T09:30:09.963Z,66.56
2016-11-02T09:31:20.687Z,66.36
2016-11-02T09:32:31.402Z,66.75
2016-11-02T09:33:42.592Z,66.56
2016-11-02T09:34:53.718Z,66.17
2016-11-02T09:36:05.304Z,66.17
2016-11-02T09:37:16.076Z,66.17
2016-11-02T09:38:27.222Z,66.94
2016-11-02T09:39:37.880Z,66.94
2016-11-02T09:40:49.018Z,66.85
2016-11-02T09:42:00.272Z,67.43
2016-11-02T09:43:11.385Z,67.43
2016-11-02T09:44:22.084Z,67.62
2016-11-02T09:45:32.812Z,67.59
2016-11-02T09:46:43.645Z,67.62
2016-11-02T09:47:54.292Z,67.43
2016-11-02T09:49:05.001Z,67.33
2016-11-02T09:50:15.737Z,67.43
2016-11-02T09:51:26.903Z,67.43
2016-11-02T09:52:37.624Z,66.75
2016-11-02T09:53:48.757Z,66.75
2016-11-02T09:54:59.516Z,66.46
2016-11-02T09:56:10.577Z,66.75
2016-11-02T09:57:21.719Z,66.08
2016-11-02T09:58:32.834Z,66.27
2016-11-02T09:59:44.384Z,65.63
2016-11-02T10:00:55.077Z,65.63
2016-11-02T10:02:05.824Z,65.66
2016-11-02T10:03:16.469Z,66.11
2016-11-02T10:04:27.175Z,65.72
2016-11-02T10:05:37.895Z,65.75
2016-11-02T10:06:48.620Z,65.72
2016-11-02T10:07:59.345Z,65.27
2016-11-02T10:09:10.022Z,64.89
2016-11-02T10:10:20.792Z,65.56
2016-11-02T10:11:32.272Z,65.47
2016-11-02T10:12:43.021Z,65.66
2016-11-02T10:13:53.709Z,64.89
2016-11-02T10:15:04.459Z,64.89
2016-11-02T10:16:15.157Z,64.62
2016-11-02T10:17:26.848Z,63.95
2016-11-02T10:18:37.633Z,63.56
2016-11-02T10:19:48.742Z,64.53
2016-11-02T10:20:59.806Z,63.08
2016-11-02T10:22:10.576Z,63.31
2016-11-02T10:23:21.756Z,63.01
2016-11-02T10:24:32.894Z,61.18
2016-11-02T10:25:43.671Z,59.36
2016-11-02T10:26:54.779Z,59.33
2016-11-02T10:28:05.916Z,58.65
2016-11-02T10:29:17.015Z,59.91
2016-11-02T10:30:27.712Z,59.52
2016-11-02T10:31:39.216Z,60.46
2016-11-02T10:32:49.876Z,59.97
2016-11-02T10:34:00.595Z,61.04
2016-11-02T10:35:11.309Z,60.82
2016-11-02T10:36:22.370Z,60.72
2016-11-02T10:37:33.867Z,60.85
2016-11-02T10:38:44.594Z,61.3
2016-11-02T10:39:55.787Z,61.21
2016-11-02T10:41:06.617Z,61.3
2016-11-02T10:42:17.343Z,61.21
2016-11-02T10:43:28.026Z,61.3
2016-11-02T10:44:39.095Z,61.01
2016-11-02T10:45:50.199Z,61.3
2016-11-02T10:47:01.707Z,61.59
2016-11-02T10:48:12.414Z,61.4
2016-11-02T10:49:23.123Z,60.82
2016-11-02T10:50:34.590Z,60.94
2016-11-02T10:51:45.354Z,60.85
2016-11-02T10:52:56.085Z,60.46
2016-11-02T10:54:06.787Z,59.88
2016-11-02T10:55:17.922Z,59.59
2016-11-02T10:56:29.532Z,59.81
2016-11-02T10:57:40.195Z,59.33
2016-11-02T10:58:51.373Z,59.33
2016-11-02T11:00:02.043Z,59.03
2016-11-02T11:01:13.123Z,59.16
2016-11-02T11:02:24.266Z,59.55
2016-11-02T11:03:35.000Z,59.42
2016-11-02T11:04:46.896Z,59.55
2016-11-02T11:05:57.623Z,59.64
2016-11-02T11:07:08.718Z,59.03
2016-11-02T11:08:19.501Z,58.97
2016-11-02T11:09:30.240Z,58
2016-11-02T11:10:41.289Z,58.58
2016-11-02T11:11:52.004Z,58.48
2016-11-02T11:13:02.661Z,58.58
2016-11-02T11:14:13.406Z,59.45
2016-11-02T11:15:24.176Z,58.58
2016-11-02T11:16:35.623Z,56.96
2016-11-02T11:17:46.683Z,53.49
2016-11-02T11:18:57.360Z,51.07
2016-11-02T11:20:08.504Z,50.31
2016-11-02T11:21:19.652Z,47.44
2016-11-02T11:22:31.234Z,46.9
2016-11-02T11:23:41.965Z,47.78
2016-11-02T11:24:53.094Z,49.88
2016-11-02T11:26:03.750Z,50.34
2016-11-02T11:27:14.513Z,49.56
2016-11-02T11:28:26.097Z,50.63
2016-11-02T11:29:37.648Z,48.75
2016-11-02T11:30:48.759Z,46.08
2016-11-02T11:31:59.439Z,43.04
2016-11-02T11:33:11.679Z,42.22
2016-11-02T11:34:22.433Z,41.91
2016-11-02T11:35:33.607Z,41.05
2016-11-02T11:36:44.787Z,40.41
2016-11-02T11:37:55.538Z,40.8
2016-11-02T11:39:06.679Z,42.71
2016-11-02T11:40:17.336Z,42.69
2016-11-02T11:41:28.808Z,41.42
2016-11-02T11:42:39.565Z,40.09
2016-11-02T11:43:50.654Z,39.35
2016-11-02T11:45:01.831Z,39.17
2016-11-02T11:46:13.426Z,38.37
2016-11-02T11:47:24.210Z,39.45
2016-11-02T11:48:34.937Z,39.06
2016-11-02T11:49:46.091Z,39.45
2016-11-02T11:50:56.789Z,39.23
2016-11-02T11:52:08.376Z,38.63
2016-11-02T11:53:19.099Z,37.41
2016-11-02T11:54:30.272Z,38.68
2016-11-02T11:55:40.932Z,37.71
2016-11-02T11:56:51.613Z,37.31
2016-11-02T11:58:02.448Z,36.94
2016-11-02T11:59:13.144Z,37.04
2016-11-02T12:00:24.209Z,38
2016-11-02T12:01:35.008Z,35.96
2016-11-02T12:02:45.789Z,34.72
2016-11-02T12:03:57.087Z,33.95
2016-11-02T12:05:07.823Z,35.82
2016-11-02T12:06:18.612Z,35.41
2016-11-02T12:07:29.367Z,35.13
2016-11-02T12:08:40.162Z,35.21
2016-11-02T12:09:51.099Z,33.65
2016-11-02T12:11:01.822Z,33.89
2016-11-02T12:12:12.461Z,35.05
2016-11-02T12:13:23.605Z,36.09
2016-11-02T12:14:34.377Z,35.68
2016-11-02T12:15:45.654Z,34.64
2016-11-02T12:16:56.765Z,33.58
2016-11-02T12:18:07.491Z,32.64
2016-11-02T12:19:18.990Z,33.74
2016-11-02T12:20:30.104Z,34.56
2016-11-02T12:21:40.812Z,36.7
2016-11-02T12:22:52.289Z,37.45
2016-11-02T12:24:03.446Z,37.02
2016-11-02T12:25:14.109Z,35.76
2016-11-02T12:26:28.240Z,33.74
2016-11-02T12:27:39.886Z,34.83
2016-11-02T12:28:50.965Z,33.85
2016-11-02T12:30:01.678Z,33.98
2016-11-02T12:31:12.808Z,33.85
2016-11-02T12:32:23.573Z,33.87
2016-11-02T12:33:34.319Z,34.08
2016-11-02T12:34:45.459Z,35.02
2016-11-02T12:35:56.586Z,35.8
2016-11-02T12:37:07.343Z,35.49
2016-11-02T12:38:18.014Z,33.74
2016-11-02T12:39:28.868Z,34.44
2016-11-02T12:40:39.579Z,34.92
2016-11-02T12:41:50.743Z,34.72
2016-11-02T12:43:01.423Z,33.46
2016-11-02T12:44:12.155Z,33.89
2016-11-02T12:45:22.872Z,34.75
2016-11-02T12:46:33.639Z,37.17
2016-11-02T12:47:45.150Z,36.33
2016-11-02T12:48:55.836Z,34.8
2016-11-02T12:50:07.347Z,34.66
2016-11-02T12:51:19.020Z,33.67
2016-11-02T12:52:30.094Z,33.69
2016-11-02T12:53:40.894Z,34.75
2016-11-02T12:54:52.146Z,35.7
2016-11-02T12:56:03.283Z,36.08
2016-11-02T12:57:14.101Z,35.78
2016-11-02T12:58:24.857Z,34.54
2016-11-02T12:59:35.599Z,36.51
2016-11-02T13:00:46.290Z,38.1
2016-11-02T13:01:57.024Z,38.84
2016-11-02T13:03:07.836Z,39.33
2016-11-02T13:04:18.916Z,39.78
2016-11-02T13:05:29.653Z,40.39
2016-11-02T13:06:40.418Z,41.15
2016-11-02T13:07:51.111Z,39.78
2016-11-02T13:09:01.811Z,39.35
2016-11-02T13:10:12.915Z,39.82
2016-11-02T13:11:24.047Z,40.29
2016-11-02T13:12:34.785Z,39.59
2016-11-02T13:13:45.898Z,40.37
2016-11-02T13:14:57.152Z,39.02
2016-11-02T13:16:07.979Z,38.45
2016-11-02T13:17:18.728Z,38.75
2016-11-02T13:18:30.178Z,38.45
2016-11-02T13:19:40.918Z,38.26
2016-11-02T13:20:51.733Z,38.43
2016-11-02T13:22:02.538Z,37
2016-11-02T13:23:13.670Z,37.41
2016-11-02T13:24:25.180Z,36.9
2016-11-02T13:25:36.620Z,37.31
2016-11-02T13:26:51.153Z,37.57
2016-11-02T13:28:02.654Z,34.57
2016-11-02T13:29:13.386Z,32.68
2016-11-02T13:30:24.511Z,33.49
2016-11-02T13:31:35.627Z,34.64
2016-11-02T13:32:46.436Z,35.66
2016-11-02T13:33:57.508Z,35.94
2016-11-02T13:35:08.665Z,36.82
2016-11-02T13:36:19.752Z,36.14
2016-11-02T13:37:30.864Z,37.49
2016-11-02T13:38:42.092Z,38.04
2016-11-02T13:39:53.251Z,37.73
2016-11-02T13:41:03.974Z,36.1
2016-11-02T13:42:14.689Z,35.75
2016-11-02T13:43:25.373Z,35.94
2016-11-02T13:44:36.537Z,36.24
2016-11-02T13:45:47.570Z,36.8
2016-11-02T13:46:58.640Z,36.53
2016-11-02T13:48:09.741Z,35.85
2016-11-02T13:49:21.941Z,36.33
2016-11-02T13:50:32.671Z,37.02
2016-11-02T13:51:43.388Z,37.96
2016-11-02T13:52:55.690Z,38.43
2016-11-02T13:54:06.439Z,37.85
2016-11-02T13:55:17.978Z,37.65
2016-11-02T13:56:28.831Z,37.35
2016-11-02T13:57:39.551Z,37.85
2016-11-02T13:58:50.368Z,38.14
2016-11-02T14:00:01.520Z,36.98
2016-11-02T14:01:12.279Z,36.79
2016-11-02T14:02:23.566Z,35.35
2016-11-02T14:03:34.693Z,34.78
2016-11-02T14:04:45.795Z,33.84
2016-11-02T14:05:56.500Z,32.87
2016-11-02T14:07:07.656Z,32.21
2016-11-02T14:08:18.906Z,32.51
2016-11-02T14:09:29.692Z,30.77
2016-11-02T14:10:40.468Z,31.66
2016-11-02T14:11:51.172Z,33.1
2016-11-02T14:13:01.872Z,33.54
2016-11-02T14:14:12.595Z,32.76
2016-11-02T14:15:24.617Z,31.6
2016-11-02T14:16:35.710Z,32.28
2016-11-02T14:17:46.531Z,32.46
2016-11-02T14:18:57.671Z,32.09
2016-11-02T14:20:08.865Z,32.17
2016-11-02T14:21:19.592Z,32.25
2016-11-02T14:22:30.328Z,30.9
2016-11-02T14:23:41.025Z,30.53
2016-11-02T14:24:52.321Z,29.55
2016-11-02T14:26:04.696Z,28.81
2016-11-02T14:27:15.473Z,29
2016-11-02T14:28:27.039Z,28.82
2016-11-02T14:29:38.516Z,29.11
2016-11-02T14:30:49.223Z,29.28
2016-11-02T14:32:00.401Z,30.53
2016-11-02T14:33:11.126Z,30.04
2016-11-02T14:34:21.854Z,31.51
2016-11-02T14:35:33.883Z,31.5
2016-11-02T14:36:44.660Z,31.68
2016-11-02T14:37:55.339Z,31.4
2016-11-02T14:39:06.127Z,30.73
2016-11-02T14:40:16.856Z,30.65
2016-11-02T14:41:28.314Z,32.09
2016-11-02T14:42:39.055Z,32.07
2016-11-02T14:43:50.258Z,31.3
2016-11-02T14:45:01.026Z,32.28
2016-11-02T14:46:12.125Z,31.68
2016-11-02T14:47:22.910Z,32.46
2016-11-02T14:48:33.726Z,33.51
2016-11-02T14:49:44.541Z,33.41
2016-11-02T14:50:55.307Z,33.59
2016-11-02T14:52:07.255Z,33.8
2016-11-02T14:53:18.438Z,34.67
2016-11-02T14:54:29.212Z,34.57
2016-11-02T14:55:40.471Z,33.69
2016-11-02T14:56:51.341Z,33.89
2016-11-02T14:58:02.799Z,33.79
2016-11-02T14:59:13.541Z,33.39
2016-11-02T15:00:24.262Z,32.54
2016-11-02T15:01:34.990Z,32.27
2016-11-02T15:02:46.526Z,32.17
2016-11-02T15:03:57.240Z,32.35
2016-11-02T15:05:08.376Z,33.43
2016-11-02T15:06:19.539Z,32.27
2016-11-02T15:07:30.892Z,33.53
2016-11-02T15:08:41.664Z,34.67
2016-11-02T15:09:52.401Z,35.93
2016-11-02T15:11:03.538Z,36.38
2016-11-02T15:12:14.628Z,36.46
2016-11-02T15:13:25.370Z,37.24
2016-11-02T15:14:36.151Z,36.46
2016-11-02T15:15:47.303Z,35.99
2016-11-02T15:16:58.482Z,35.03
2016-11-02T15:18:09.238Z,33.67
2016-11-02T15:19:20.341Z,33.41